createdAt,value
2023-08-04T00:02:18.889Z,23.30
2023-08-04T00:04:45.525Z,23.30
2023-08-04T00:07:12.139Z,23.20
2023-08-04T00:09:38.786Z,23.20
2023-08-04T00:12:05.419Z,23.20
2023-08-04T00:14:32.089Z,23.10
2023-08-04T00:16:58.663Z,23.00
2023-08-04T00:19:25.275Z,23.00
2023-08-04T00:21:51.909Z,23.00
2023-08-04T00:24:18.499Z,23.00
2023-08-04T00:26:45.337Z,23.10
2023-08-04T00:29:11.962Z,23.10
2023-08-04T00:31:38.654Z,23.20
2023-08-04T00:34:05.280Z,23.20
2023-08-04T00:36:31.934Z,23.10
2023-08-04T00:38:58.524Z,23.20
2023-08-04T00:41:25.164Z,23.20
2023-08-04T00:43:51.785Z,23.20
2023-08-04T00:46:18.413Z,23.20
2023-08-04T00:48:45.085Z,23.20
2023-08-04T00:51:11.730Z,23.20
2023-08-04T00:53:38.415Z,23.20
2023-08-04T00:56:05.045Z,23.20
2023-08-04T00:58:31.679Z,23.20
2023-08-04T01:00:58.332Z,23.10
2023-08-04T01:03:25.053Z,23.00
2023-08-04T01:05:51.748Z,23.00
2023-08-04T01:08:18.347Z,23.00
2023-08-04T01:10:44.951Z,23.00
2023-08-04T01:13:11.614Z,23.00
2023-08-04T01:15:38.529Z,23.00
2023-08-04T01:18:05.179Z,23.00
2023-08-04T01:20:31.855Z,23.00
2023-08-04T01:22:58.592Z,22.90
2023-08-04T01:25:25.243Z,22.90
2023-08-04T01:27:51.889Z,22.80
2023-08-04T01:30:18.643Z,22.70
2023-08-04T01:32:45.513Z,22.70
2023-08-04T01:35:12.166Z,22.70
2023-08-04T01:37:38.813Z,22.70
2023-08-04T01:40:05.405Z,22.70
2023-08-04T01:42:31.990Z,22.70
2023-08-04T01:44:58.615Z,22.80
2023-08-04T01:47:25.292Z,22.90
2023-08-04T01:49:52.013Z,22.80
2023-08-04T01:52:18.592Z,22.90
2023-08-04T01:54:45.194Z,22.70
2023-08-04T01:57:11.765Z,22.60
2023-08-04T01:59:38.529Z,22.50
2023-08-04T02:02:05.173Z,22.40
2023-08-04T02:04:31.795Z,22.40
2023-08-04T02:06:58.523Z,22.40
2023-08-04T02:09:25.127Z,22.40
2023-08-04T02:11:52.080Z,22.40
2023-08-04T02:14:18.712Z,22.40
2023-08-04T02:16:45.356Z,22.30
2023-08-04T02:19:12.002Z,22.20
2023-08-04T02:21:38.657Z,22.00
2023-08-04T02:24:05.244Z,22.00
2023-08-04T02:26:31.856Z,22.00
2023-08-04T02:28:58.480Z,22.00
2023-08-04T02:31:25.246Z,21.90
2023-08-04T02:33:52.031Z,21.90
2023-08-04T02:36:18.738Z,22.30
2023-08-04T02:38:45.406Z,22.50
2023-08-04T02:41:12.001Z,22.70
2023-08-04T02:43:38.607Z,22.90
2023-08-04T02:46:05.226Z,23.00
2023-08-04T02:48:31.887Z,23.00
2023-08-04T02:50:58.527Z,23.10
2023-08-04T02:53:25.144Z,23.20
2023-08-04T02:55:51.757Z,23.20
2023-08-04T02:58:18.388Z,23.20
2023-08-04T03:00:45.045Z,23.20
2023-08-04T03:03:11.738Z,23.30
2023-08-04T03:05:38.371Z,23.30
2023-08-04T03:08:05.010Z,23.30
2023-08-04T03:10:31.635Z,23.30
2023-08-04T03:12:58.245Z,23.30
2023-08-04T03:15:24.929Z,23.40
2023-08-04T03:17:51.562Z,23.40
2023-08-04T03:20:18.198Z,23.30
2023-08-04T03:22:44.868Z,23.40
2023-08-04T03:25:11.507Z,23.40
2023-08-04T03:27:38.114Z,23.40
2023-08-04T03:30:04.706Z,23.40
2023-08-04T03:32:31.407Z,23.50
2023-08-04T03:34:58.071Z,23.50
2023-08-04T03:37:24.694Z,23.50
2023-08-04T03:39:51.324Z,23.60
2023-08-04T03:42:17.984Z,23.60
2023-08-04T03:44:44.639Z,23.60
2023-08-04T03:47:11.254Z,23.60
2023-08-04T03:49:37.866Z,23.70
2023-08-04T03:52:04.488Z,23.70
2023-08-04T03:54:31.141Z,23.70
2023-08-04T03:56:57.707Z,23.70
2023-08-04T03:59:24.347Z,23.80
2023-08-04T04:01:51.240Z,23.80
2023-08-04T04:04:18.125Z,23.80
2023-08-04T04:06:44.765Z,23.80
2023-08-04T04:09:11.420Z,23.80
2023-08-04T04:11:38.047Z,23.80
2023-08-04T04:14:04.665Z,23.80
2023-08-04T04:16:31.363Z,23.90
2023-08-04T04:18:58.092Z,23.80
2023-08-04T04:21:24.743Z,23.80
2023-08-04T04:23:51.380Z,23.90
2023-08-04T04:26:18.029Z,23.90
2023-08-04T04:28:44.666Z,23.90
2023-08-04T04:31:11.343Z,23.90
2023-08-04T04:33:37.939Z,23.90
2023-08-04T04:36:04.530Z,24.00
2023-08-04T04:38:31.136Z,24.00
2023-08-04T04:40:57.744Z,24.00
2023-08-04T04:43:24.376Z,24.00
2023-08-04T04:45:50.987Z,24.00
2023-08-04T04:48:17.633Z,24.10
2023-08-04T04:50:44.199Z,24.10
2023-08-04T04:53:10.851Z,24.10
2023-08-04T04:55:37.435Z,24.10
2023-08-04T04:58:04.115Z,24.10
2023-08-04T05:00:30.750Z,24.10
2023-08-04T05:02:57.422Z,24.10
2023-08-04T05:05:24.052Z,24.20
2023-08-04T05:07:50.622Z,24.10
2023-08-04T05:10:17.236Z,24.20
2023-08-04T05:12:43.853Z,24.20
2023-08-04T05:15:10.580Z,24.20
2023-08-04T05:17:37.209Z,24.20
2023-08-04T05:20:04.063Z,24.20
2023-08-04T05:22:30.733Z,24.20
2023-08-04T05:25:08.988Z,24.20
2023-08-04T05:27:37.833Z,24.30
2023-08-04T05:30:04.626Z,24.20
2023-08-04T05:32:31.385Z,24.30
2023-08-04T05:34:58.052Z,24.30
2023-08-04T05:37:24.672Z,23.40
2023-08-04T05:39:51.330Z,23.10
2023-08-04T05:42:17.914Z,23.00
2023-08-04T05:44:44.507Z,22.80
2023-08-04T05:47:11.113Z,22.80
2023-08-04T05:49:37.764Z,22.80
2023-08-04T05:52:04.408Z,22.70
2023-08-04T05:54:31.091Z,22.60
2023-08-04T05:56:57.677Z,22.60
2023-08-04T05:59:24.329Z,22.80
2023-08-04T06:01:51.181Z,23.00
2023-08-04T06:04:19.542Z,22.90
2023-08-04T06:06:47.381Z,22.90
2023-08-04T06:09:14.009Z,23.00
2023-08-04T06:11:40.617Z,23.00
2023-08-04T06:14:07.257Z,23.00
2023-08-04T06:16:33.912Z,23.20
2023-08-04T06:19:00.543Z,23.20
2023-08-04T06:21:27.175Z,23.40
2023-08-04T06:23:53.787Z,23.60
2023-08-04T06:26:20.545Z,23.90
2023-08-04T06:28:47.185Z,24.10
2023-08-04T06:31:13.871Z,24.30
2023-08-04T06:33:40.482Z,24.50
2023-08-04T06:36:07.081Z,24.60
2023-08-04T06:38:33.707Z,24.80
2023-08-04T06:41:00.333Z,24.90
2023-08-04T06:43:26.947Z,25.00
2023-08-04T06:45:53.550Z,25.10
2023-08-04T06:48:20.189Z,25.00
2023-08-04T06:50:46.780Z,25.00
2023-08-04T06:53:16.208Z,25.00
2023-08-04T06:55:46.885Z,25.10
2023-08-04T06:58:13.698Z,25.10
2023-08-04T07:00:40.274Z,25.10
2023-08-04T07:03:07.222Z,25.00
2023-08-04T07:05:33.939Z,25.10
2023-08-04T07:08:00.548Z,25.10
2023-08-04T07:10:27.176Z,25.10
2023-08-04T07:12:53.793Z,24.60
2023-08-04T07:15:20.419Z,24.00
2023-08-04T07:17:47.021Z,23.60
2023-08-04T07:20:13.707Z,23.50
2023-08-04T07:22:40.347Z,23.40
2023-08-04T07:25:07.108Z,23.40
2023-08-04T07:27:33.734Z,23.30
2023-08-04T07:30:00.336Z,23.20
2023-08-04T07:32:26.939Z,23.30
2023-08-04T07:34:53.588Z,23.50
2023-08-04T07:37:20.231Z,23.60
2023-08-04T07:39:46.807Z,23.60
2023-08-04T07:42:13.667Z,23.60
2023-08-04T07:44:40.357Z,23.70
2023-08-04T07:47:07.057Z,23.70
2023-08-04T07:49:33.713Z,23.70
2023-08-04T07:52:00.286Z,23.70
2023-08-04T07:54:26.977Z,23.70
2023-08-04T07:56:53.568Z,23.80
2023-08-04T07:59:20.226Z,23.90
2023-08-04T08:01:47.291Z,24.00
2023-08-04T08:04:15.584Z,24.00
2023-08-04T08:06:42.457Z,24.00
2023-08-04T08:09:09.121Z,24.00
2023-08-04T08:11:35.923Z,24.10
2023-08-04T08:14:02.506Z,24.00
2023-08-04T08:16:29.160Z,24.00
2023-08-04T08:18:55.777Z,24.00
2023-08-04T08:21:22.427Z,24.10
2023-08-04T08:23:49.006Z,24.10
2023-08-04T08:26:15.607Z,23.90
2023-08-04T08:28:42.204Z,23.40
2023-08-04T08:31:08.839Z,23.30
2023-08-04T08:33:35.494Z,23.20
2023-08-04T08:36:02.101Z,23.20
2023-08-04T08:38:28.753Z,23.30
2023-08-04T08:40:55.362Z,23.30
2023-08-04T08:43:21.982Z,23.40
2023-08-04T08:45:48.603Z,23.50
2023-08-04T08:48:15.325Z,23.60
2023-08-04T08:50:42.003Z,23.70
2023-08-04T08:53:08.677Z,23.70
2023-08-04T08:55:35.270Z,23.80
2023-08-04T08:58:01.880Z,23.70
2023-08-04T09:00:28.459Z,23.70
2023-08-04T09:02:55.144Z,23.80
2023-08-04T09:05:21.869Z,23.80
2023-08-04T09:07:48.457Z,23.80
2023-08-04T09:10:16.777Z,23.80
2023-08-04T09:12:43.875Z,23.80
2023-08-04T09:15:10.540Z,23.80
2023-08-04T09:17:37.171Z,23.80
2023-08-04T09:20:03.849Z,23.80
2023-08-04T09:22:30.492Z,23.80
2023-08-04T09:24:57.776Z,23.80
2023-08-04T09:27:24.550Z,23.70
2023-08-04T09:29:51.168Z,23.70
2023-08-04T09:32:17.758Z,23.80
2023-08-04T09:34:44.335Z,23.80
2023-08-04T09:37:10.932Z,23.80
2023-08-04T09:39:37.528Z,23.80
2023-08-04T09:42:04.173Z,23.70
2023-08-04T09:44:30.801Z,23.70
2023-08-04T09:46:57.467Z,23.70
2023-08-04T09:49:24.083Z,23.70
2023-08-04T09:51:50.797Z,23.80
2023-08-04T09:54:17.605Z,23.70
2023-08-04T09:56:44.214Z,23.80
2023-08-04T09:59:10.860Z,23.70
2023-08-04T10:01:37.663Z,23.70
2023-08-04T10:04:04.492Z,23.70
2023-08-04T10:06:31.209Z,23.80
2023-08-04T10:08:57.871Z,23.80
2023-08-04T10:11:24.508Z,23.80
2023-08-04T10:13:51.197Z,23.80
2023-08-04T10:16:17.981Z,23.80
2023-08-04T10:18:44.679Z,23.80
2023-08-04T10:21:11.254Z,23.80
2023-08-04T10:23:37.891Z,23.80
2023-08-04T10:26:04.545Z,23.80
2023-08-04T10:28:31.162Z,23.80
2023-08-04T10:30:57.841Z,23.80
2023-08-04T10:33:24.586Z,23.80
2023-08-04T10:35:51.315Z,23.80
2023-08-04T10:38:17.983Z,23.80
2023-08-04T10:40:44.698Z,23.80
2023-08-04T10:43:11.364Z,23.80
2023-08-04T10:45:37.940Z,23.80
2023-08-04T10:48:10.874Z,23.70
2023-08-04T10:50:38.383Z,23.80
2023-08-04T10:53:05.190Z,23.70
2023-08-04T10:55:31.923Z,23.70
2023-08-04T10:57:58.661Z,23.80
2023-08-04T11:00:25.270Z,23.80
2023-08-04T11:02:51.934Z,23.70
2023-08-04T11:05:18.696Z,23.70
2023-08-04T11:07:45.364Z,23.80
2023-08-04T11:10:11.988Z,23.70
2023-08-04T11:12:38.591Z,23.70
2023-08-04T11:15:05.245Z,23.80
2023-08-04T11:17:32.068Z,23.80
2023-08-04T11:19:58.881Z,23.80
2023-08-04T11:22:25.567Z,23.80
2023-08-04T11:24:52.213Z,23.80
2023-08-04T11:27:18.806Z,23.80
2023-08-04T11:29:45.402Z,23.80
2023-08-04T11:32:12.105Z,23.80
2023-08-04T11:34:38.781Z,23.80
2023-08-04T11:37:05.493Z,23.80
2023-08-04T11:39:32.072Z,23.80
2023-08-04T11:41:58.661Z,23.80
2023-08-04T11:44:25.236Z,23.80
2023-08-04T11:46:51.893Z,23.80
2023-08-04T11:49:18.494Z,23.80
2023-08-04T11:51:45.186Z,23.80
2023-08-04T11:54:11.894Z,23.90
2023-08-04T11:56:38.587Z,23.80
2023-08-04T11:59:05.308Z,23.80
2023-08-04T12:01:32.146Z,23.90
2023-08-04T12:03:59.135Z,23.90
2023-08-04T12:06:25.894Z,23.90
2023-08-04T12:08:52.555Z,23.90
2023-08-04T12:11:19.204Z,23.80
2023-08-04T12:13:45.935Z,23.90
2023-08-04T12:16:12.582Z,23.90
2023-08-04T12:18:39.255Z,23.90
2023-08-04T12:21:05.858Z,23.80
2023-08-04T12:23:32.632Z,23.90
2023-08-04T12:25:59.394Z,23.90
2023-08-04T12:28:25.999Z,23.90
2023-08-04T12:31:08.745Z,23.90
2023-08-04T12:33:39.235Z,23.90
2023-08-04T12:36:05.863Z,23.90
2023-08-04T12:38:32.467Z,23.90
2023-08-04T12:40:59.138Z,23.90
2023-08-04T12:43:25.777Z,23.90
2023-08-04T12:45:54.112Z,23.90
2023-08-04T12:48:21.277Z,23.90
2023-08-04T12:50:48.029Z,23.90
2023-08-04T12:53:14.741Z,23.90
2023-08-04T12:55:41.447Z,23.90
2023-08-04T12:58:08.072Z,23.90
2023-08-04T13:00:34.718Z,23.90
2023-08-04T13:03:01.461Z,23.90
2023-08-04T13:05:28.192Z,23.90
2023-08-04T13:07:54.976Z,23.90
2023-08-04T13:10:21.667Z,23.90
2023-08-04T13:12:48.259Z,23.90
2023-08-04T13:15:14.917Z,23.90
2023-08-04T13:17:41.582Z,23.90
2023-08-04T13:20:08.309Z,23.90
2023-08-04T13:22:34.951Z,23.90
2023-08-04T13:25:01.614Z,23.90
2023-08-04T13:27:28.268Z,23.90
2023-08-04T13:29:54.937Z,23.90
2023-08-04T13:32:21.696Z,24.00
2023-08-04T13:34:48.375Z,23.90
2023-08-04T13:37:15.056Z,23.90
2023-08-04T13:39:41.644Z,23.90
2023-08-04T13:42:08.299Z,24.00
2023-08-04T13:44:34.894Z,23.90
2023-08-04T13:47:01.579Z,24.00
2023-08-04T13:49:28.218Z,23.90
2023-08-04T13:51:54.929Z,23.90
2023-08-04T13:54:21.589Z,23.90
2023-08-04T13:56:48.192Z,24.00
2023-08-04T13:59:14.891Z,24.00
2023-08-04T14:01:41.640Z,24.00
2023-08-04T14:04:08.338Z,24.00
2023-08-04T14:06:34.988Z,24.00
2023-08-04T14:09:01.661Z,24.00
2023-08-04T14:11:28.273Z,24.00
2023-08-04T14:13:54.924Z,24.00
2023-08-04T14:16:21.557Z,23.90
2023-08-04T14:18:48.135Z,24.00
2023-08-04T14:21:14.807Z,24.00
2023-08-04T14:23:41.445Z,24.00
2023-08-04T14:26:08.137Z,24.00
2023-08-04T14:28:34.806Z,24.00
2023-08-04T14:31:01.460Z,24.00
2023-08-04T14:33:28.123Z,24.00
2023-08-04T14:35:54.730Z,24.00
2023-08-04T14:38:21.440Z,24.00
2023-08-04T14:40:48.197Z,24.00
2023-08-04T14:43:14.987Z,24.00
2023-08-04T14:45:41.626Z,24.00
2023-08-04T14:48:08.401Z,23.90
2023-08-04T14:50:35.063Z,24.00
2023-08-04T14:53:01.714Z,24.00
2023-08-04T14:55:28.379Z,24.00
2023-08-04T14:57:55.037Z,24.00
2023-08-04T15:00:21.695Z,24.00
2023-08-04T15:02:48.351Z,24.00
2023-08-04T15:05:15.099Z,24.00
2023-08-04T15:07:41.795Z,24.00
2023-08-04T15:10:08.499Z,24.00
2023-08-04T15:12:35.220Z,24.00
2023-08-04T15:15:01.924Z,24.00
2023-08-04T15:17:28.648Z,24.00
2023-08-04T15:19:55.377Z,24.00
2023-08-04T15:22:22.099Z,24.00
2023-08-04T15:24:48.884Z,24.00
2023-08-04T15:27:15.670Z,24.00
2023-08-04T15:29:42.264Z,24.00
2023-08-04T15:32:09.067Z,24.00
2023-08-04T15:34:35.747Z,24.00
2023-08-04T15:37:02.359Z,24.00
2023-08-04T15:39:29.005Z,24.00
2023-08-04T15:41:55.651Z,24.00
2023-08-04T15:44:22.290Z,24.00
2023-08-04T15:46:48.904Z,24.00
2023-08-04T15:49:15.539Z,24.00
2023-08-04T15:51:42.186Z,24.00
2023-08-04T15:54:08.786Z,24.00
2023-08-04T15:56:35.439Z,24.00
2023-08-04T15:59:02.055Z,24.00
2023-08-04T16:01:28.827Z,24.00
2023-08-04T16:03:55.776Z,24.10
2023-08-04T16:06:22.613Z,24.00
2023-08-04T16:08:49.252Z,24.00
2023-08-04T16:11:15.923Z,24.00
2023-08-04T16:13:42.666Z,24.00
2023-08-04T16:16:09.444Z,24.10
2023-08-04T16:18:36.155Z,24.00
2023-08-04T16:21:02.754Z,24.00
2023-08-04T16:23:29.412Z,24.00
2023-08-04T16:25:56.039Z,24.00
2023-08-04T16:28:22.666Z,24.00
2023-08-04T16:30:49.262Z,24.00
2023-08-04T16:33:15.895Z,24.00
2023-08-04T16:35:42.556Z,24.00
2023-08-04T16:38:09.166Z,24.00
2023-08-04T16:40:35.813Z,24.10
2023-08-04T16:43:02.465Z,24.10
2023-08-04T16:45:29.121Z,24.20
2023-08-04T16:47:55.798Z,24.40
2023-08-04T16:50:22.491Z,24.50
2023-08-04T16:52:49.126Z,24.40
2023-08-04T16:55:15.745Z,24.40
2023-08-04T16:57:42.448Z,24.40
2023-08-04T17:00:09.150Z,24.40
2023-08-04T17:02:35.927Z,24.40
2023-08-04T17:05:02.873Z,24.30
2023-08-04T17:07:29.542Z,24.30
2023-08-04T17:09:56.343Z,24.20
2023-08-04T17:12:23.014Z,24.20
2023-08-04T17:14:49.694Z,24.10
2023-08-04T17:17:16.317Z,24.10
2023-08-04T17:19:42.951Z,24.10
2023-08-04T17:22:09.593Z,24.00
2023-08-04T17:24:36.249Z,24.00
2023-08-04T17:27:02.871Z,24.00
2023-08-04T17:29:29.484Z,23.90
2023-08-04T17:31:56.131Z,24.00
2023-08-04T17:34:22.807Z,24.00
2023-08-04T17:36:49.747Z,24.10
2023-08-04T17:39:16.569Z,24.10
2023-08-04T17:41:43.204Z,24.10
2023-08-04T17:44:09.851Z,24.10
2023-08-04T17:46:36.610Z,24.10
2023-08-04T17:49:03.274Z,24.10
2023-08-04T17:51:29.951Z,24.20
2023-08-04T17:53:56.541Z,24.20
2023-08-04T17:56:23.112Z,24.30
2023-08-04T17:58:49.765Z,24.30
2023-08-04T18:01:16.462Z,24.30
2023-08-04T18:03:43.198Z,24.30
2023-08-04T18:06:09.886Z,24.40
2023-08-04T18:08:36.546Z,24.40
2023-08-04T18:11:03.163Z,24.50
2023-08-04T18:13:29.854Z,24.50
2023-08-04T18:15:56.480Z,24.50
2023-08-04T18:18:23.104Z,24.40
2023-08-04T18:20:49.790Z,24.40
2023-08-04T18:23:16.403Z,24.40
2023-08-04T18:25:43.334Z,24.40
2023-08-04T18:28:09.992Z,24.40
2023-08-04T18:30:36.962Z,24.40
2023-08-04T18:33:03.707Z,24.40
2023-08-04T18:35:30.408Z,24.30
2023-08-04T18:37:57.097Z,24.40
2023-08-04T18:40:23.711Z,24.40
2023-08-04T18:42:50.364Z,24.40
2023-08-04T18:45:16.983Z,24.40
2023-08-04T18:47:43.690Z,24.40
2023-08-04T18:50:10.684Z,24.40
2023-08-04T18:52:37.426Z,24.40
2023-08-04T18:55:04.157Z,24.50
2023-08-04T18:57:30.834Z,24.50
2023-08-04T18:59:57.449Z,24.60
2023-08-04T19:02:24.164Z,24.50
2023-08-04T19:04:50.897Z,24.30
2023-08-04T19:07:17.554Z,24.00
2023-08-04T19:09:44.229Z,23.80
2023-08-04T19:12:10.885Z,23.70
2023-08-04T19:14:37.524Z,23.70
2023-08-04T19:17:04.223Z,23.60
2023-08-04T19:19:30.902Z,23.40
2023-08-04T19:21:57.592Z,23.20
2023-08-04T19:24:24.225Z,23.10
2023-08-04T19:26:51.100Z,23.00
2023-08-04T19:29:18.151Z,23.10
2023-08-04T19:31:44.796Z,23.00
2023-08-04T19:34:11.451Z,22.90
2023-08-04T19:36:38.189Z,22.80
2023-08-04T19:39:06.958Z,22.60
2023-08-04T19:41:33.607Z,22.60
2023-08-04T19:44:00.464Z,22.40
2023-08-04T19:46:27.113Z,22.60
2023-08-04T19:48:53.853Z,22.50
2023-08-04T19:51:20.519Z,22.60
2023-08-04T19:53:47.286Z,22.70
2023-08-04T19:56:14.003Z,22.60
2023-08-04T19:58:40.704Z,22.70
2023-08-04T20:01:07.383Z,22.60
2023-08-04T20:03:34.202Z,22.60
2023-08-04T20:06:02.046Z,22.60
2023-08-04T20:08:28.693Z,22.40
2023-08-04T20:10:55.302Z,22.40
2023-08-04T20:13:21.941Z,22.40
2023-08-04T20:15:51.004Z,22.60
2023-08-04T20:18:17.659Z,22.70
2023-08-04T20:20:44.385Z,22.80
2023-08-04T20:23:10.990Z,22.90
2023-08-04T20:25:37.677Z,22.90
2023-08-04T20:28:04.323Z,22.80
2023-08-04T20:30:30.977Z,22.70
2023-08-04T20:32:57.640Z,22.70
2023-08-04T20:35:24.272Z,22.80
2023-08-04T20:37:50.965Z,22.80
2023-08-04T20:40:17.677Z,22.80
2023-08-04T20:42:45.392Z,22.50
2023-08-04T20:45:13.265Z,22.20
2023-08-04T20:47:39.959Z,22.00
2023-08-04T20:50:06.756Z,22.00
2023-08-04T20:52:33.397Z,22.00
2023-08-04T20:55:01.249Z,22.00
2023-08-04T20:57:29.532Z,22.00
2023-08-04T20:59:56.217Z,21.90
2023-08-04T21:02:22.939Z,21.90
2023-08-04T21:04:49.708Z,22.00
2023-08-04T21:07:16.431Z,22.00
2023-08-04T21:09:43.116Z,22.00
2023-08-04T21:12:09.793Z,22.00
2023-08-04T21:14:36.495Z,22.10
2023-08-04T21:17:03.169Z,22.00
2023-08-04T21:19:29.787Z,21.90
2023-08-04T21:21:56.450Z,21.90
2023-08-04T21:24:23.101Z,21.90
2023-08-04T21:26:49.970Z,21.80
2023-08-04T21:29:16.782Z,21.70
2023-08-04T21:31:43.510Z,21.70
2023-08-04T21:34:10.229Z,21.50
2023-08-04T21:36:36.851Z,21.50
2023-08-04T21:39:03.500Z,21.50
2023-08-04T21:41:30.172Z,21.50
2023-08-04T21:43:56.853Z,21.40
2023-08-04T21:46:23.548Z,21.40
2023-08-04T21:48:50.210Z,21.30
2023-08-04T21:51:16.902Z,21.30
2023-08-04T21:53:43.680Z,21.30
2023-08-04T21:56:10.395Z,21.30
2023-08-04T21:58:37.026Z,21.30
2023-08-04T22:01:03.661Z,21.20
2023-08-04T22:03:30.364Z,21.20
2023-08-04T22:05:57.067Z,21.50
2023-08-04T22:08:23.664Z,21.80
2023-08-04T22:10:50.274Z,22.00
2023-08-04T22:13:16.869Z,22.20
2023-08-04T22:15:43.587Z,22.40
2023-08-04T22:18:10.204Z,22.50
2023-08-04T22:20:36.805Z,22.60
2023-08-04T22:23:04.436Z,22.70
2023-08-04T22:25:31.097Z,22.80
2023-08-04T22:27:57.841Z,22.80
2023-08-04T22:30:24.481Z,22.90
2023-08-04T22:32:51.208Z,22.90
2023-08-04T22:35:17.846Z,23.00
2023-08-04T22:37:44.511Z,23.00
2023-08-04T22:40:11.139Z,23.00
2023-08-04T22:42:37.897Z,23.10
2023-08-04T22:45:04.524Z,23.10
2023-08-04T22:47:31.196Z,23.20
2023-08-04T22:49:57.904Z,23.20
2023-08-04T22:52:24.545Z,23.20
2023-08-04T22:54:51.224Z,23.30
2023-08-04T22:57:17.810Z,23.30
2023-08-04T22:59:44.417Z,23.30
2023-08-04T23:02:11.105Z,23.40
2023-08-04T23:04:37.774Z,23.40
2023-08-04T23:07:04.374Z,23.40
2023-08-04T23:09:31.041Z,23.40
2023-08-04T23:11:57.697Z,23.40
2023-08-04T23:14:24.336Z,23.50
2023-08-04T23:16:51.229Z,23.50
2023-08-04T23:19:18.124Z,23.50
2023-08-04T23:21:44.732Z,23.60
2023-08-04T23:24:11.317Z,23.60
2023-08-04T23:26:37.972Z,23.60
2023-08-04T23:29:04.608Z,23.60
2023-08-04T23:31:31.228Z,23.60
2023-08-04T23:33:57.899Z,23.60
2023-08-04T23:36:24.521Z,23.60
2023-08-04T23:38:51.231Z,23.70
2023-08-04T23:41:17.900Z,23.70
2023-08-04T23:43:44.616Z,23.70
2023-08-04T23:46:11.289Z,23.70
2023-08-04T23:48:38.008Z,23.70
2023-08-04T23:51:04.661Z,23.70
2023-08-04T23:53:31.304Z,23.80
2023-08-04T23:55:57.892Z,23.80
2023-08-04T23:58:24.620Z,23.80
